createdAt,value
2024-04-18T00:00:58.881Z,76.06
2024-04-18T00:03:25.566Z,76.47
2024-04-18T00:05:52.207Z,76.05
2024-04-18T00:08:18.709Z,75.26
2024-04-18T00:10:45.322Z,75.06
2024-04-18T00:13:11.909Z,75.16
2024-04-18T00:15:39.380Z,74.91
2024-04-18T00:18:08.635Z,74.90
2024-04-18T00:20:35.264Z,75.05
2024-04-18T00:23:01.792Z,74.94
2024-04-18T00:25:31.949Z,75.76
2024-04-18T00:27:58.483Z,75.02
2024-04-18T00:30:25.691Z,74.91
2024-04-18T00:32:52.265Z,75.06
2024-04-18T00:35:21.698Z,75.05
2024-04-18T00:37:48.250Z,75.32
2024-04-18T00:40:14.801Z,75.26
2024-04-18T00:42:42.045Z,75.13
2024-04-18T00:45:08.761Z,75.44
2024-04-18T00:47:35.461Z,75.91
2024-04-18T00:50:02.736Z,75.73
2024-04-18T00:52:32.547Z,75.70
2024-04-18T00:54:59.161Z,76.46
2024-04-18T00:57:25.748Z,75.81
2024-04-18T00:59:52.732Z,75.70
2024-04-18T01:02:20.602Z,75.34
2024-04-18T01:04:47.317Z,75.82
2024-04-18T01:07:13.857Z,75.43
2024-04-18T01:09:43.136Z,75.74
2024-04-18T01:12:09.750Z,75.19
2024-04-18T01:14:36.336Z,75.18
2024-04-18T01:17:03.300Z,75.11
2024-04-18T01:19:29.919Z,75.13
2024-04-18T01:21:59.462Z,75.56
2024-04-18T01:24:27.880Z,75.64
2024-04-18T01:26:57.124Z,75.39
2024-04-18T01:29:23.734Z,75.44
2024-04-18T01:31:50.345Z,75.82
2024-04-18T01:34:17.020Z,75.67
2024-04-18T01:36:44.712Z,75.53
2024-04-18T01:39:11.344Z,75.26
2024-04-18T01:41:37.919Z,75.30
2024-04-18T01:44:07.203Z,75.04
2024-04-18T01:46:33.811Z,74.96
2024-04-18T01:49:00.562Z,74.66
2024-04-18T01:51:27.264Z,74.83
2024-04-18T01:53:53.811Z,74.88
2024-04-18T01:56:20.374Z,74.76
2024-04-18T01:58:47.078Z,74.76
2024-04-18T02:01:16.451Z,75.56
2024-04-18T02:03:43.315Z,75.46
2024-04-18T02:06:09.907Z,75.18
2024-04-18T02:08:36.446Z,75.02
2024-04-18T02:11:03.185Z,75.07
2024-04-18T02:13:29.798Z,75.18
2024-04-18T02:15:56.369Z,74.82
2024-04-18T02:18:25.681Z,75.05
2024-04-18T02:20:52.339Z,75.04
2024-04-18T02:23:18.926Z,75.02
2024-04-18T02:25:45.484Z,75.47
2024-04-18T02:28:12.061Z,75.22
2024-04-18T02:30:38.736Z,75.32
2024-04-18T02:33:05.421Z,75.51
2024-04-18T02:35:34.805Z,75.92
2024-04-18T02:38:01.405Z,75.85
2024-04-18T02:40:27.949Z,75.67
2024-04-18T02:42:54.497Z,75.77
2024-04-18T02:45:21.086Z,76.01
2024-04-18T02:47:47.732Z,75.96
2024-04-18T02:50:14.417Z,75.69
2024-04-18T02:52:43.696Z,76.02
2024-04-18T02:55:10.249Z,75.91
2024-04-18T02:57:36.914Z,76.01
2024-04-18T03:00:03.726Z,76.29
2024-04-18T03:02:30.328Z,76.15
2024-04-18T03:04:56.911Z,76.48
2024-04-18T03:07:23.453Z,76.37
2024-04-18T03:09:52.837Z,76.06
2024-04-18T03:12:19.418Z,76.35
2024-04-18T03:14:45.985Z,76.29
2024-04-18T03:17:12.550Z,76.37
2024-04-18T03:19:39.101Z,76.42
2024-04-18T03:22:05.893Z,76.42
2024-04-18T03:24:32.459Z,75.96
2024-04-18T03:27:01.753Z,76.13
2024-04-18T03:29:28.317Z,76.16
2024-04-18T03:31:54.860Z,76.18
2024-04-18T03:34:21.457Z,76.13
2024-04-18T03:36:48.065Z,75.93
2024-04-18T03:39:14.793Z,76.11
2024-04-18T03:41:41.382Z,76.55
2024-04-18T03:44:10.605Z,76.27
2024-04-18T03:46:37.197Z,76.42
2024-04-18T03:49:03.789Z,76.15
2024-04-18T03:51:30.445Z,76.53
2024-04-18T03:53:57.013Z,76.29
2024-04-18T03:56:23.533Z,76.06
2024-04-18T03:58:50.269Z,76.30
2024-04-18T04:01:19.639Z,76.21
2024-04-18T04:03:46.389Z,76.31
2024-04-18T04:06:13.022Z,76.17
2024-04-18T04:08:39.610Z,76.21
2024-04-18T04:11:06.234Z,76.25
2024-04-18T04:13:32.966Z,76.23
2024-04-18T04:15:59.712Z,76.38
2024-04-18T04:18:29.086Z,76.77
2024-04-18T04:20:55.787Z,77.16
2024-04-18T04:23:22.552Z,77.23
2024-04-18T04:25:49.071Z,76.91
2024-04-18T04:28:15.634Z,77.63
2024-04-18T04:30:42.213Z,77.05
2024-04-18T04:33:08.819Z,76.43
2024-04-18T04:35:38.084Z,76.09
2024-04-18T04:38:04.604Z,76.16
2024-04-18T04:40:31.143Z,76.82
2024-04-18T04:43:00.465Z,77.09
2024-04-18T04:45:27.361Z,77.18
2024-04-18T04:47:54.092Z,77.42
2024-04-18T04:50:20.794Z,77.08
2024-04-18T04:52:50.074Z,77.70
2024-04-18T04:55:16.615Z,77.84
2024-04-18T04:57:43.272Z,77.10
2024-04-18T05:00:10.244Z,76.20
2024-04-18T05:02:39.170Z,75.79
2024-04-18T05:05:06.751Z,76.23
2024-04-18T05:07:33.560Z,76.62
2024-04-18T05:10:02.890Z,77.40
2024-04-18T05:12:29.517Z,77.40
2024-04-18T05:14:56.262Z,78.06
2024-04-18T05:17:22.841Z,79.38
2024-04-18T05:19:49.337Z,80.20
2024-04-18T05:22:15.917Z,78.89
2024-04-18T05:24:42.565Z,78.67
2024-04-18T05:27:11.884Z,79.60
2024-04-18T05:29:38.479Z,78.40
2024-04-18T05:32:05.150Z,77.12
2024-04-18T05:34:31.799Z,78.36
2024-04-18T05:36:58.387Z,77.88
2024-04-18T05:39:25.066Z,77.87
2024-04-18T05:41:51.598Z,77.09
2024-04-18T05:44:20.830Z,77.61
2024-04-18T05:46:47.416Z,76.94
2024-04-18T05:49:14.228Z,75.62
2024-04-18T05:51:43.740Z,76.24
2024-04-18T05:54:10.302Z,76.46
2024-04-18T05:56:36.930Z,76.57
2024-04-18T05:59:03.520Z,76.42
2024-04-18T06:01:32.784Z,76.11
2024-04-18T06:03:59.545Z,75.17
2024-04-18T06:06:26.215Z,77.45
2024-04-18T06:08:52.786Z,75.64
2024-04-18T06:11:19.419Z,77.26
2024-04-18T06:13:45.985Z,76.60
2024-04-18T06:16:12.546Z,73.50
2024-04-18T06:18:41.823Z,73.93
2024-04-18T06:21:08.431Z,73.06
2024-04-18T06:23:35.022Z,72.84
2024-04-18T06:26:01.584Z,72.95
2024-04-18T06:28:28.199Z,71.83
2024-04-18T06:30:54.857Z,73.40
2024-04-18T06:33:21.604Z,72.83
2024-04-18T06:35:50.832Z,73.81
2024-04-18T06:38:17.540Z,72.08
2024-04-18T06:40:44.091Z,71.89
2024-04-18T06:43:10.716Z,71.86
2024-04-18T06:45:37.328Z,70.07
2024-04-18T06:48:04.333Z,70.11
2024-04-18T06:50:30.906Z,72.70
2024-04-18T06:53:00.259Z,72.64
2024-04-18T06:55:26.876Z,71.75
2024-04-18T06:57:53.561Z,70.51
2024-04-18T07:00:20.492Z,68.39
2024-04-18T07:02:47.089Z,69.87
2024-04-18T07:05:13.804Z,68.89
2024-04-18T07:07:40.368Z,67.74
2024-04-18T07:10:09.911Z,67.40
2024-04-18T07:12:36.497Z,66.39
2024-04-18T07:15:03.152Z,66.44
2024-04-18T07:17:29.836Z,66.95
2024-04-18T07:19:56.406Z,64.11
2024-04-18T07:22:23.188Z,63.97
2024-04-18T07:24:49.795Z,63.70
2024-04-18T07:27:19.158Z,63.56
2024-04-18T07:29:45.890Z,64.35
2024-04-18T07:32:12.708Z,62.77
2024-04-18T07:34:44.077Z,60.52
2024-04-18T07:37:10.727Z,60.77
2024-04-18T07:39:37.393Z,61.43
2024-04-18T07:42:04.232Z,61.11
2024-04-18T07:44:33.564Z,60.42
2024-04-18T07:47:00.381Z,61.19
2024-04-18T07:49:27.035Z,61.12
2024-04-18T07:51:56.891Z,59.89
2024-04-18T07:54:23.909Z,61.90
2024-04-18T07:56:50.962Z,60.92
2024-04-18T07:59:18.917Z,60.43
2024-04-18T08:01:50.463Z,60.23
2024-04-18T08:04:35.375Z,61.56
2024-04-18T08:07:07.654Z,60.56
2024-04-18T08:09:38.581Z,57.64
2024-04-18T08:12:23.895Z,56.68
2024-04-18T08:14:57.911Z,55.46
2024-04-18T08:17:30.017Z,57.57
2024-04-18T08:19:56.852Z,57.74
2024-04-18T08:22:23.832Z,56.57
2024-04-18T08:24:50.428Z,56.67
2024-04-18T08:27:17.063Z,55.83
2024-04-18T08:29:43.651Z,56.25
2024-04-18T08:32:10.280Z,55.18
2024-04-18T08:34:42.337Z,54.83
2024-04-18T08:37:10.257Z,55.07
2024-04-18T08:39:36.943Z,56.36
2024-04-18T08:42:04.976Z,54.78
2024-04-18T08:44:31.835Z,56.93
2024-04-18T08:46:59.286Z,55.18
2024-04-18T08:49:26.824Z,53.74
2024-04-18T08:51:56.463Z,54.23
2024-04-18T08:54:23.034Z,54.57
2024-04-18T08:56:50.872Z,53.88
2024-04-18T08:59:17.722Z,54.03
2024-04-18T09:01:45.772Z,53.66
2024-04-18T09:04:12.403Z,52.66
2024-04-18T09:06:38.984Z,52.90
2024-04-18T09:09:12.228Z,53.30
2024-04-18T09:11:38.839Z,53.93
2024-04-18T09:14:06.490Z,51.99
2024-04-18T09:16:33.786Z,50.79
2024-04-18T09:19:00.371Z,51.12
2024-04-18T09:21:28.262Z,52.13
2024-04-18T09:23:54.938Z,50.16
2024-04-18T09:26:26.303Z,50.25
2024-04-18T09:28:52.855Z,49.50
2024-04-18T09:31:27.262Z,49.48
2024-04-18T09:33:57.849Z,49.60
2024-04-18T09:36:24.484Z,49.94
2024-04-18T09:38:51.182Z,51.90
2024-04-18T09:41:20.907Z,50.72
2024-04-18T09:43:56.584Z,51.49
2024-04-18T09:46:23.874Z,51.56
2024-04-18T09:48:51.454Z,52.26
2024-04-18T09:51:18.345Z,52.01
2024-04-18T09:53:45.728Z,52.17
2024-04-18T09:56:12.611Z,50.58
2024-04-18T09:58:39.229Z,50.47
2024-04-18T10:01:09.744Z,51.48
2024-04-18T10:03:36.641Z,49.55
2024-04-18T10:06:05.025Z,51.07
2024-04-18T10:08:33.639Z,49.67
2024-04-18T10:11:00.733Z,50.25
2024-04-18T10:13:27.503Z,50.64
2024-04-18T10:16:03.660Z,50.85
2024-04-18T10:18:37.755Z,50.84
2024-04-18T10:21:07.549Z,51.01
2024-04-18T10:23:34.184Z,49.29
2024-04-18T10:26:00.781Z,47.18
2024-04-18T10:28:27.348Z,47.91
2024-04-18T10:31:00.931Z,49.44
2024-04-18T10:33:28.186Z,50.12
2024-04-18T10:35:57.733Z,49.60
2024-04-18T10:38:24.738Z,48.75
2024-04-18T10:40:59.931Z,49.65
2024-04-18T10:43:27.921Z,49.75
2024-04-18T10:45:54.618Z,48.43
2024-04-18T10:48:21.482Z,49.47
2024-04-18T10:50:48.976Z,49.21
2024-04-18T10:53:18.639Z,50.47
2024-04-18T10:55:45.303Z,50.57
2024-04-18T10:58:12.232Z,50.59
2024-04-18T11:00:38.823Z,50.03
2024-04-18T11:03:05.601Z,49.77
2024-04-18T11:05:32.208Z,49.93
2024-04-18T11:07:58.871Z,49.90
2024-04-18T11:10:28.387Z,50.19
2024-04-18T11:12:55.107Z,49.88
2024-04-18T11:15:21.706Z,49.16
2024-04-18T11:17:48.318Z,47.93
2024-04-18T11:20:15.013Z,46.76
2024-04-18T11:22:44.344Z,47.27
2024-04-18T11:25:15.575Z,46.80
2024-04-18T11:27:44.846Z,46.96
2024-04-18T11:30:15.097Z,47.38
2024-04-18T11:32:41.788Z,47.25
2024-04-18T11:35:15.686Z,48.55
2024-04-18T11:37:46.126Z,45.53
2024-04-18T11:40:12.785Z,46.76
2024-04-18T11:42:39.467Z,45.85
2024-04-18T11:45:09.138Z,45.19
2024-04-18T11:47:36.187Z,45.97
2024-04-18T11:50:02.796Z,45.65
2024-04-18T11:52:29.337Z,45.89
2024-04-18T11:54:55.933Z,43.73
2024-04-18T11:57:22.829Z,43.31
2024-04-18T11:59:49.378Z,42.97
2024-04-18T12:02:18.642Z,43.48
2024-04-18T12:04:45.265Z,43.57
2024-04-18T12:07:20.690Z,44.35
2024-04-18T12:09:47.314Z,43.51
2024-04-18T12:12:13.881Z,44.23
2024-04-18T12:14:40.471Z,43.21
2024-04-18T12:17:07.103Z,43.40
2024-04-18T12:19:36.296Z,43.05
2024-04-18T12:22:02.828Z,43.31
2024-04-18T12:24:29.448Z,42.54
2024-04-18T12:26:56.079Z,42.67
2024-04-18T12:29:22.618Z,43.51
2024-04-18T12:31:49.216Z,42.83
2024-04-18T12:34:15.826Z,40.39
2024-04-18T12:36:45.044Z,40.52
2024-04-18T12:39:11.741Z,41.13
2024-04-18T12:41:38.361Z,41.18
2024-04-18T12:44:05.086Z,40.08
2024-04-18T12:46:31.832Z,39.94
2024-04-18T12:48:58.814Z,40.21
2024-04-18T12:51:25.632Z,40.96
2024-04-18T12:53:57.078Z,40.83
2024-04-18T12:56:24.348Z,40.65
2024-04-18T12:58:51.032Z,40.57
2024-04-18T13:01:17.883Z,41.55
2024-04-18T13:03:45.145Z,42.71
2024-04-18T13:06:12.479Z,39.71
2024-04-18T13:08:39.069Z,38.41
2024-04-18T13:11:08.297Z,38.55
2024-04-18T13:13:34.983Z,39.04
2024-04-18T13:16:03.195Z,39.09
2024-04-18T13:18:30.288Z,39.27
2024-04-18T13:20:56.972Z,40.21
2024-04-18T13:23:23.550Z,40.17
2024-04-18T13:25:50.095Z,39.23
2024-04-18T13:28:20.096Z,37.84
2024-04-18T13:30:46.716Z,38.40
2024-04-18T13:33:13.448Z,38.84
2024-04-18T13:35:40.212Z,39.42
2024-04-18T13:38:06.775Z,38.30
2024-04-18T13:40:33.361Z,39.36
2024-04-18T13:43:00.039Z,38.33
2024-04-18T13:45:29.376Z,37.49
2024-04-18T13:47:56.203Z,38.77
2024-04-18T13:50:22.931Z,37.18
2024-04-18T13:52:49.605Z,38.21
2024-04-18T13:55:16.231Z,37.24
2024-04-18T13:57:42.926Z,39.23
2024-04-18T14:00:10.106Z,38.61
2024-04-18T14:02:39.378Z,37.40
2024-04-18T14:05:06.488Z,37.23
2024-04-18T14:07:33.048Z,37.13
2024-04-18T14:09:59.578Z,36.99
2024-04-18T14:12:26.269Z,37.55
2024-04-18T14:14:52.804Z,37.78
2024-04-18T14:17:19.496Z,37.77
2024-04-18T14:19:48.711Z,38.48
2024-04-18T14:22:15.291Z,38.19
2024-04-18T14:24:41.979Z,37.65
2024-04-18T14:27:08.696Z,36.84
2024-04-18T14:29:35.278Z,37.93
2024-04-18T14:32:02.712Z,37.98
2024-04-18T14:34:29.605Z,36.85
2024-04-18T14:36:59.020Z,37.49
2024-04-18T14:39:25.667Z,37.15
2024-04-18T14:41:52.215Z,37.25
2024-04-18T14:44:18.794Z,38.16
2024-04-18T14:46:45.338Z,36.97
2024-04-18T14:49:11.945Z,38.37
2024-04-18T14:51:38.598Z,37.64
2024-04-18T14:54:07.932Z,37.76
2024-04-18T14:56:34.503Z,37.35
2024-04-18T14:59:01.114Z,36.43
2024-04-18T15:01:27.650Z,36.16
2024-04-18T15:03:54.350Z,36.90
2024-04-18T15:06:21.206Z,36.94
2024-04-18T15:08:47.751Z,38.02
2024-04-18T15:11:17.419Z,38.18
2024-04-18T15:13:44.005Z,38.40
2024-04-18T15:16:10.693Z,38.01
2024-04-18T15:18:37.630Z,37.62
2024-04-18T15:21:04.530Z,36.89
2024-04-18T15:23:31.117Z,36.16
2024-04-18T15:25:57.700Z,36.82
2024-04-18T15:28:26.890Z,36.61
2024-04-18T15:30:53.536Z,37.96
2024-04-18T15:33:20.205Z,38.01
2024-04-18T15:35:46.804Z,37.12
2024-04-18T15:38:13.364Z,38.29
2024-04-18T15:40:40.055Z,38.36
2024-04-18T15:43:06.838Z,37.04
2024-04-18T15:45:39.152Z,37.53
2024-04-18T15:48:06.416Z,37.88
2024-04-18T15:50:33.359Z,36.90
2024-04-18T15:52:59.924Z,36.65
2024-04-18T15:55:26.596Z,37.95
2024-04-18T15:57:53.143Z,37.88
2024-04-18T16:00:19.815Z,38.06
2024-04-18T16:02:51.786Z,37.39
2024-04-18T16:05:20.005Z,38.03
2024-04-18T16:07:46.734Z,38.04
2024-04-18T16:10:13.433Z,38.09
2024-04-18T16:12:40.110Z,38.63
2024-04-18T16:15:07.111Z,40.27
2024-04-18T16:17:34.139Z,39.50
2024-04-18T16:20:03.549Z,38.83
2024-04-18T16:22:30.102Z,39.03
2024-04-18T16:24:56.647Z,37.27
2024-04-18T16:27:23.500Z,37.77
2024-04-18T16:29:50.087Z,37.39
2024-04-18T16:32:16.631Z,38.20
2024-04-18T16:34:43.147Z,38.17
2024-04-18T16:37:15.121Z,39.26
2024-04-18T16:39:43.960Z,40.09
2024-04-18T16:42:10.690Z,40.24
2024-04-18T16:44:37.289Z,39.18
2024-04-18T16:47:04.074Z,40.11
2024-04-18T16:49:30.665Z,40.03
2024-04-18T16:51:57.406Z,40.46
2024-04-18T16:54:26.814Z,39.39
2024-04-18T16:56:53.400Z,40.28
2024-04-18T16:59:19.940Z,40.34
2024-04-18T17:01:46.612Z,40.83
2024-04-18T17:04:13.346Z,40.18
2024-04-18T17:06:47.294Z,40.59
2024-04-18T17:09:15.618Z,40.97
2024-04-18T17:11:44.971Z,41.46
2024-04-18T17:14:11.570Z,41.76
2024-04-18T17:16:38.123Z,40.78
2024-04-18T17:19:04.762Z,41.47
2024-04-18T17:21:31.464Z,40.83
2024-04-18T17:23:58.215Z,41.70
2024-04-18T17:26:27.416Z,42.32
2024-04-18T17:28:58.304Z,42.02
2024-04-18T17:31:25.011Z,43.01
2024-04-18T17:33:51.867Z,43.10
2024-04-18T17:36:18.523Z,43.90
2024-04-18T17:38:45.987Z,45.30
2024-04-18T17:41:12.581Z,45.16
2024-04-18T17:43:39.193Z,45.65
2024-04-18T17:46:08.634Z,45.42
2024-04-18T17:48:35.370Z,44.94
2024-04-18T17:51:02.020Z,45.03
2024-04-18T17:53:28.535Z,46.60
2024-04-18T17:55:55.534Z,46.17
2024-04-18T17:58:22.142Z,47.16
2024-04-18T18:00:49.102Z,47.58
2024-04-18T18:03:18.628Z,46.48
2024-04-18T18:05:45.326Z,47.58
2024-04-18T18:08:11.878Z,47.23
2024-04-18T18:10:38.553Z,48.11
2024-04-18T18:13:05.169Z,47.92
2024-04-18T18:15:31.772Z,47.54
2024-04-18T18:17:58.536Z,47.01
2024-04-18T18:20:27.802Z,48.36
2024-04-18T18:22:54.458Z,49.90
2024-04-18T18:25:20.993Z,51.22
2024-04-18T18:27:47.592Z,52.84
2024-04-18T18:30:14.387Z,53.63
2024-04-18T18:32:41.182Z,54.50
2024-04-18T18:35:07.860Z,55.00
2024-04-18T18:37:37.097Z,55.73
2024-04-18T18:40:03.943Z,56.22
2024-04-18T18:42:30.624Z,56.52
2024-04-18T18:44:57.297Z,56.80
2024-04-18T18:47:23.882Z,57.45
2024-04-18T18:49:50.608Z,57.35
2024-04-18T18:52:17.156Z,58.00
2024-04-18T18:54:46.488Z,58.84
2024-04-18T18:57:13.178Z,59.66
2024-04-18T18:59:42.378Z,59.93
2024-04-18T19:02:08.960Z,60.10
2024-04-18T19:04:35.757Z,59.95
2024-04-18T19:07:02.597Z,60.07
2024-04-18T19:09:29.287Z,60.60
2024-04-18T19:11:58.595Z,60.33
2024-04-18T19:14:25.138Z,60.72
2024-04-18T19:16:51.779Z,60.58
2024-04-18T19:19:18.344Z,60.04
2024-04-18T19:21:44.974Z,59.43
2024-04-18T19:24:11.525Z,59.78
2024-04-18T19:26:38.080Z,59.26
2024-04-18T19:29:07.279Z,58.77
2024-04-18T19:31:33.864Z,58.69
2024-04-18T19:34:00.967Z,59.82
2024-04-18T19:36:27.746Z,59.68
2024-04-18T19:38:54.366Z,59.43
2024-04-18T19:41:21.145Z,59.29
2024-04-18T19:43:47.725Z,59.88
2024-04-18T19:46:17.102Z,60.58
2024-04-18T19:48:43.810Z,61.11
2024-04-18T19:51:10.420Z,61.44
2024-04-18T19:53:37.011Z,61.83
2024-04-18T19:56:03.741Z,62.39
2024-04-18T19:58:30.269Z,62.24
2024-04-18T20:00:57.087Z,62.74
2024-04-18T20:03:26.703Z,63.04
2024-04-18T20:05:53.386Z,63.61
2024-04-18T20:08:20.013Z,63.68
2024-04-18T20:10:46.519Z,63.61
2024-04-18T20:13:13.087Z,63.43
2024-04-18T20:15:39.986Z,63.71
2024-04-18T20:18:07.004Z,64.66
2024-04-18T20:20:36.327Z,64.79
2024-04-18T20:23:02.954Z,64.94
2024-04-18T20:25:29.585Z,65.25
2024-04-18T20:27:56.321Z,65.21
2024-04-18T20:30:22.928Z,65.62
2024-04-18T20:32:49.549Z,65.71
2024-04-18T20:35:16.135Z,65.81
2024-04-18T20:37:45.338Z,66.05
2024-04-18T20:40:11.901Z,66.39
2024-04-18T20:42:38.565Z,66.71
2024-04-18T20:45:05.706Z,66.35
2024-04-18T20:47:32.743Z,67.32
2024-04-18T20:49:59.454Z,66.94
2024-04-18T20:52:26.079Z,67.15
2024-04-18T20:54:55.289Z,67.25
2024-04-18T20:57:24.371Z,67.62
2024-04-18T20:59:53.528Z,67.70
2024-04-18T21:02:20.106Z,67.29
2024-04-18T21:04:46.668Z,67.68
2024-04-18T21:07:13.325Z,67.63
2024-04-18T21:09:39.918Z,67.34
2024-04-18T21:12:09.506Z,67.73
2024-04-18T21:14:36.089Z,68.08
2024-04-18T21:17:02.730Z,68.42
2024-04-18T21:19:29.293Z,68.19
2024-04-18T21:21:55.883Z,67.82
2024-04-18T21:24:22.569Z,68.05
2024-04-18T21:26:49.461Z,68.39
2024-04-18T21:29:18.733Z,67.74
2024-04-18T21:31:45.334Z,67.94
2024-04-18T21:34:12.270Z,68.32
2024-04-18T21:36:39.223Z,68.62
2024-04-18T21:39:05.923Z,68.63
2024-04-18T21:41:32.660Z,68.92
2024-04-18T21:43:59.296Z,69.06
2024-04-18T21:46:28.561Z,68.73
2024-04-18T21:48:55.294Z,69.09
2024-04-18T21:51:21.953Z,69.63
2024-04-18T21:53:48.501Z,68.82
2024-04-18T21:56:15.413Z,69.35
2024-04-18T21:58:42.134Z,69.62
2024-04-18T22:01:08.825Z,68.46
2024-04-18T22:03:38.328Z,68.86
2024-04-18T22:06:07.788Z,68.84
2024-04-18T22:08:34.595Z,69.42
2024-04-18T22:11:01.154Z,69.62
2024-04-18T22:13:27.768Z,69.05
2024-04-18T22:15:54.429Z,69.12
2024-04-18T22:18:21.080Z,68.94
2024-04-18T22:20:50.368Z,68.84
2024-04-18T22:23:17.027Z,69.71
2024-04-18T22:25:43.765Z,69.84
2024-04-18T22:28:10.336Z,70.18
2024-04-18T22:30:37.107Z,69.29
2024-04-18T22:33:04.014Z,69.61
2024-04-18T22:35:30.678Z,70.23
2024-04-18T22:38:00.108Z,70.40
2024-04-18T22:40:26.674Z,70.21
2024-04-18T22:42:53.283Z,69.95
2024-04-18T22:45:19.859Z,70.73
2024-04-18T22:47:46.676Z,71.01
2024-04-18T22:50:13.298Z,71.69
2024-04-18T22:52:39.983Z,71.74
2024-04-18T22:55:09.441Z,71.15
2024-04-18T22:57:36.126Z,71.68
2024-04-18T23:00:02.790Z,71.59
2024-04-18T23:02:29.383Z,72.15
2024-04-18T23:04:56.034Z,72.49
2024-04-18T23:07:22.662Z,71.91
2024-04-18T23:09:49.265Z,71.85
2024-04-18T23:12:18.634Z,72.29
2024-04-18T23:14:45.438Z,72.18
2024-04-18T23:17:12.146Z,72.54
2024-04-18T23:19:38.728Z,72.60
2024-04-18T23:22:05.461Z,72.50
2024-04-18T23:24:32.121Z,72.63
2024-04-18T23:26:58.833Z,73.79
2024-04-18T23:29:28.331Z,73.23
2024-04-18T23:31:55.023Z,73.58
2024-04-18T23:34:21.589Z,72.88
2024-04-18T23:36:48.170Z,72.96
2024-04-18T23:39:14.819Z,72.89
2024-04-18T23:41:41.469Z,73.51
2024-04-18T23:44:08.280Z,74.24
2024-04-18T23:46:37.562Z,73.94
2024-04-18T23:49:04.234Z,73.81
2024-04-18T23:51:30.849Z,74.96
2024-04-18T23:53:57.451Z,74.30
2024-04-18T23:56:23.976Z,74.51
2024-04-18T23:58:50.607Z,74.17
